createdAt,value
2018-02-23T00:01:20.488Z,0.00
2018-02-23T00:01:59.465Z,0.00
2018-02-23T00:02:59.444Z,0.00
2018-02-23T00:03:59.430Z,0.00
2018-02-23T00:04:59.406Z,0.00
2018-02-23T00:05:59.386Z,0.00
2018-02-23T00:07:20.372Z,0.00
2018-02-23T00:07:59.350Z,0.00
2018-02-23T00:08:59.330Z,0.00
2018-02-23T00:09:59.306Z,0.00
2018-02-23T00:10:59.293Z,0.00
2018-02-23T00:11:59.275Z,0.00
2018-02-23T00:13:20.257Z,0.00
2018-02-23T00:13:59.228Z,0.00
2018-02-23T00:14:59.215Z,0.00
2018-02-23T00:15:59.195Z,0.00
2018-02-23T00:16:59.171Z,0.00
2018-02-23T00:17:59.150Z,0.00
2018-02-23T00:19:20.140Z,0.00
2018-02-23T00:19:59.114Z,0.00
2018-02-23T00:20:59.097Z,0.00
2018-02-23T00:21:59.075Z,0.00
2018-02-23T00:22:59.054Z,0.00
2018-02-23T00:23:59.035Z,0.00
2018-02-23T00:25:20.014Z,0.00
2018-02-23T00:25:58.992Z,0.00
2018-02-23T00:26:58.974Z,0.00
2018-02-23T00:27:58.954Z,0.00
2018-02-23T00:28:58.938Z,0.00
2018-02-23T00:29:58.917Z,0.00
2018-02-23T00:31:19.908Z,0.00
2018-02-23T00:31:58.880Z,0.00
2018-02-23T00:32:58.862Z,0.00
2018-02-23T00:33:58.838Z,0.00
2018-02-23T00:34:58.821Z,0.00
2018-02-23T00:35:58.800Z,0.00
2018-02-23T00:37:19.782Z,0.00
2018-02-23T00:37:58.762Z,0.00
2018-02-23T00:38:58.744Z,0.00
2018-02-23T00:39:58.722Z,0.00
2018-02-23T00:40:58.704Z,0.00
2018-02-23T00:41:58.688Z,0.00
2018-02-23T00:43:19.662Z,0.00
2018-02-23T00:43:58.640Z,0.00
2018-02-23T00:44:58.626Z,0.00
2018-02-23T00:45:58.600Z,0.00
2018-02-23T00:46:58.584Z,0.00
2018-02-23T00:47:58.564Z,0.00
2018-02-23T00:49:19.547Z,0.00
2018-02-23T00:49:58.525Z,0.00
2018-02-23T00:50:58.511Z,0.00
2018-02-23T00:51:58.485Z,0.00
2018-02-23T00:52:58.464Z,0.00
2018-02-23T00:53:58.445Z,0.00
2018-02-23T00:55:19.428Z,0.00
2018-02-23T00:55:58.400Z,0.00
2018-02-23T00:56:58.390Z,0.00
2018-02-23T00:57:58.376Z,0.00
2018-02-23T00:58:58.350Z,0.00
2018-02-23T00:59:58.327Z,0.00
2018-02-23T01:01:19.309Z,0.00
2018-02-23T01:01:58.282Z,0.00
2018-02-23T01:02:58.264Z,0.00
2018-02-23T01:03:58.247Z,0.00
2018-02-23T01:04:58.231Z,0.00
2018-02-23T01:05:58.202Z,0.00
2018-02-23T01:07:19.189Z,0.00
2018-02-23T01:07:58.170Z,0.00
2018-02-23T01:08:58.152Z,0.00
2018-02-23T01:09:58.125Z,0.00
2018-02-23T01:10:58.112Z,0.00
2018-02-23T01:11:58.091Z,0.00
2018-02-23T01:13:19.069Z,0.00
2018-02-23T01:13:58.053Z,0.00
2018-02-23T01:14:58.030Z,0.00
2018-02-23T01:15:58.011Z,0.00
2018-02-23T01:16:57.993Z,0.00
2018-02-23T01:17:57.971Z,0.00
2018-02-23T01:19:18.952Z,0.00
2018-02-23T01:19:57.935Z,0.00
2018-02-23T01:20:57.917Z,0.00
2018-02-23T01:21:57.895Z,0.00
2018-02-23T01:22:57.871Z,0.00
2018-02-23T01:23:57.852Z,0.00
2018-02-23T01:25:18.841Z,0.00
2018-02-23T01:25:57.815Z,0.00
2018-02-23T01:26:57.799Z,0.00
2018-02-23T01:27:57.784Z,0.00
2018-02-23T01:28:57.761Z,0.00
2018-02-23T01:29:57.736Z,0.00
2018-02-23T01:31:18.718Z,0.00
2018-02-23T01:31:57.703Z,0.00
2018-02-23T01:32:57.683Z,0.00
2018-02-23T01:33:57.661Z,0.00
2018-02-23T01:34:57.638Z,0.00
2018-02-23T01:35:57.619Z,0.00
2018-02-23T01:37:18.610Z,0.00
2018-02-23T01:37:57.582Z,0.00
2018-02-23T01:38:57.561Z,0.00
2018-02-23T01:39:57.540Z,0.00
2018-02-23T01:40:57.519Z,0.00
2018-02-23T01:41:57.506Z,0.00
2018-02-23T01:43:18.481Z,0.00
2018-02-23T01:43:57.462Z,0.00
2018-02-23T01:44:57.440Z,0.00
2018-02-23T01:45:57.423Z,0.00
2018-02-23T01:46:57.400Z,0.00
2018-02-23T01:47:57.382Z,0.00
2018-02-23T01:49:18.364Z,0.00
2018-02-23T01:49:57.342Z,0.00
2018-02-23T01:50:57.328Z,0.00
2018-02-23T01:51:57.308Z,0.00
2018-02-23T01:52:57.283Z,0.00
2018-02-23T01:53:57.265Z,0.00
2018-02-23T01:55:18.244Z,0.00
2018-02-23T01:55:57.224Z,0.00
2018-02-23T01:56:57.210Z,0.00
2018-02-23T01:57:57.187Z,0.00
2018-02-23T01:58:57.161Z,0.00
2018-02-23T01:59:57.147Z,0.00
2018-02-23T02:01:18.129Z,0.00
2018-02-23T02:01:57.109Z,0.00
2018-02-23T02:02:57.085Z,0.00
2018-02-23T02:03:57.067Z,0.00
2018-02-23T02:04:57.044Z,0.00
2018-02-23T02:05:57.025Z,0.00
2018-02-23T02:07:18.018Z,0.00
2018-02-23T02:07:56.987Z,0.00
2018-02-23T02:08:56.968Z,0.00
2018-02-23T02:09:56.942Z,0.00
2018-02-23T02:10:56.929Z,0.00
2018-02-23T02:11:56.905Z,0.00
2018-02-23T02:13:17.890Z,0.00
2018-02-23T02:13:56.861Z,0.00
2018-02-23T02:14:56.847Z,0.00
2018-02-23T02:15:56.829Z,0.00
2018-02-23T02:16:56.807Z,0.00
2018-02-23T02:17:56.790Z,0.00
2018-02-23T02:19:17.766Z,0.00
2018-02-23T02:19:56.747Z,0.00
2018-02-23T02:20:56.733Z,0.00
2018-02-23T02:21:56.713Z,0.00
2018-02-23T02:22:56.685Z,0.00
2018-02-23T02:23:56.669Z,0.00
2018-02-23T02:25:17.651Z,0.00
2018-02-23T02:25:56.625Z,0.00
2018-02-23T02:26:56.607Z,0.00
2018-02-23T02:27:56.591Z,0.00
2018-02-23T02:28:56.569Z,0.00
2018-02-23T02:29:56.549Z,0.00
2018-02-23T02:31:17.535Z,0.00
2018-02-23T02:31:56.510Z,0.00
2018-02-23T02:32:56.489Z,0.00
2018-02-23T02:33:56.468Z,0.00
2018-02-23T02:34:56.445Z,0.00
2018-02-23T02:35:56.431Z,0.00
2018-02-23T02:37:17.414Z,0.00
2018-02-23T02:37:56.392Z,0.00
2018-02-23T02:38:56.365Z,0.00
2018-02-23T02:39:56.349Z,0.00
2018-02-23T02:40:56.331Z,0.00
2018-02-23T02:41:56.309Z,0.00
2018-02-23T02:43:17.283Z,0.00
2018-02-23T02:43:56.274Z,0.00
2018-02-23T02:44:56.247Z,0.00
2018-02-23T02:45:56.225Z,0.00
2018-02-23T02:46:56.208Z,0.00
2018-02-23T02:47:56.188Z,0.00
2018-02-23T02:49:17.172Z,0.00
2018-02-23T02:49:56.149Z,0.00
2018-02-23T02:50:56.128Z,0.00
2018-02-23T02:51:56.107Z,0.00
2018-02-23T02:52:56.088Z,0.00
2018-02-23T02:53:56.068Z,0.00
2018-02-23T02:55:17.052Z,0.00
2018-02-23T02:55:56.033Z,0.00
2018-02-23T02:56:56.004Z,0.00
2018-02-23T02:57:55.992Z,0.00
2018-02-23T02:58:55.964Z,0.00
2018-02-23T02:59:55.941Z,0.00
2018-02-23T03:01:16.926Z,0.00
2018-02-23T03:01:55.905Z,0.00
2018-02-23T03:02:55.881Z,0.00
2018-02-23T03:03:55.860Z,0.00
2018-02-23T03:04:55.839Z,0.00
2018-02-23T03:05:55.823Z,0.00
2018-02-23T03:07:16.802Z,0.00
2018-02-23T03:07:55.784Z,0.00
2018-02-23T03:08:55.762Z,0.00
2018-02-23T03:09:55.741Z,0.00
2018-02-23T03:10:55.721Z,0.00
2018-02-23T03:11:55.708Z,0.00
2018-02-23T03:13:16.683Z,0.00
2018-02-23T03:13:55.659Z,0.00
2018-02-23T03:14:55.633Z,0.00
2018-02-23T03:15:55.617Z,0.00
2018-02-23T03:16:55.642Z,0.00
2018-02-23T03:17:55.578Z,0.00
2018-02-23T03:19:16.551Z,0.00
2018-02-23T03:19:55.537Z,0.00
2018-02-23T03:20:55.518Z,0.00
2018-02-23T03:21:55.495Z,0.00
2018-02-23T03:22:55.472Z,0.00
2018-02-23T03:23:55.455Z,0.00
2018-02-23T03:25:16.434Z,0.00
2018-02-23T03:25:55.417Z,0.00
2018-02-23T03:26:55.392Z,0.00
2018-02-23T03:27:55.366Z,0.00
2018-02-23T03:28:55.354Z,0.00
2018-02-23T03:29:55.335Z,0.00
2018-02-23T03:31:16.309Z,0.00
2018-02-23T03:31:55.289Z,0.00
2018-02-23T03:32:55.271Z,0.00
2018-02-23T03:33:55.249Z,0.00
2018-02-23T03:34:55.227Z,0.00
2018-02-23T03:35:55.208Z,0.00
2018-02-23T03:37:16.185Z,0.00
2018-02-23T03:37:55.165Z,0.00
2018-02-23T03:38:55.150Z,0.00
2018-02-23T03:39:55.127Z,0.00
2018-02-23T03:40:55.102Z,0.00
2018-02-23T03:41:55.084Z,0.00
2018-02-23T03:43:16.062Z,0.00
2018-02-23T03:43:55.042Z,0.00
2018-02-23T03:44:55.021Z,0.00
2018-02-23T03:45:54.999Z,0.00
2018-02-23T03:46:54.979Z,0.00
2018-02-23T03:47:54.959Z,0.00
2018-02-23T03:49:15.943Z,0.00
2018-02-23T03:49:54.919Z,0.00
2018-02-23T03:50:54.902Z,0.00
2018-02-23T03:51:54.877Z,0.00
2018-02-23T03:52:54.862Z,0.00
2018-02-23T03:53:54.837Z,0.00
2018-02-23T03:55:15.816Z,0.00
2018-02-23T03:55:54.795Z,0.00
2018-02-23T03:56:54.781Z,0.00
2018-02-23T03:57:54.757Z,0.00
2018-02-23T03:58:54.737Z,0.00
2018-02-23T03:59:54.714Z,0.00
2018-02-23T04:01:15.698Z,0.00
2018-02-23T04:01:54.670Z,0.00
2018-02-23T04:02:54.654Z,0.00
2018-02-23T04:03:54.629Z,0.00
2018-02-23T04:04:54.613Z,0.00
2018-02-23T04:05:54.597Z,0.00
2018-02-23T04:07:15.567Z,0.00
2018-02-23T04:07:54.556Z,0.00
2018-02-23T04:08:54.532Z,0.00
2018-02-23T04:09:54.511Z,0.00
2018-02-23T04:10:54.488Z,0.00
2018-02-23T04:11:54.472Z,0.00
2018-02-23T04:13:15.456Z,0.00
2018-02-23T04:13:54.432Z,0.00
2018-02-23T04:14:54.410Z,0.00
2018-02-23T04:15:54.387Z,0.00
2018-02-23T04:16:54.369Z,0.00
2018-02-23T04:17:54.351Z,0.00
2018-02-23T04:19:15.324Z,0.00
2018-02-23T04:19:54.310Z,0.00
2018-02-23T04:20:54.287Z,0.00
2018-02-23T04:21:54.269Z,0.00
2018-02-23T04:22:54.245Z,0.00
2018-02-23T04:23:54.227Z,0.00
2018-02-23T04:25:15.205Z,0.00
2018-02-23T04:25:54.180Z,0.00
2018-02-23T04:26:54.161Z,0.00
2018-02-23T04:27:54.141Z,0.00
2018-02-23T04:28:54.130Z,0.00
2018-02-23T04:29:54.105Z,0.00
2018-02-23T04:31:15.088Z,0.00
2018-02-23T04:31:54.066Z,0.00
2018-02-23T04:32:54.042Z,0.00
2018-02-23T04:33:54.028Z,0.00
2018-02-23T04:34:54.004Z,0.00
2018-02-23T04:35:53.977Z,0.00
2018-02-23T04:37:14.960Z,0.00
2018-02-23T04:37:53.942Z,0.00
2018-02-23T04:38:53.925Z,0.00
2018-02-23T04:39:53.902Z,0.00
2018-02-23T04:40:53.884Z,0.00
2018-02-23T04:41:53.863Z,0.00
2018-02-23T04:43:14.841Z,0.00
2018-02-23T04:43:53.827Z,0.00
2018-02-23T04:44:53.799Z,0.00
2018-02-23T04:45:53.781Z,0.00
2018-02-23T04:46:53.759Z,0.00
2018-02-23T04:47:53.745Z,0.00
2018-02-23T04:49:14.765Z,0.00
2018-02-23T04:49:53.699Z,0.00
2018-02-23T04:50:53.676Z,0.00
2018-02-23T04:51:53.658Z,0.00
2018-02-23T04:52:53.640Z,0.00
2018-02-23T04:53:53.624Z,0.00
2018-02-23T04:55:14.601Z,0.00
2018-02-23T04:55:53.575Z,0.00
2018-02-23T04:56:53.556Z,0.00
2018-02-23T04:57:53.540Z,0.00
2018-02-23T04:58:53.519Z,0.00
2018-02-23T04:59:53.502Z,0.00
2018-02-23T05:01:14.483Z,0.00
2018-02-23T05:01:53.458Z,0.00
2018-02-23T05:02:53.440Z,0.00
2018-02-23T05:03:53.419Z,0.00
2018-02-23T05:04:53.398Z,0.00
2018-02-23T05:05:53.376Z,0.00
2018-02-23T05:07:14.355Z,0.00
2018-02-23T05:07:53.334Z,0.00
2018-02-23T05:08:53.314Z,0.00
2018-02-23T05:09:53.293Z,0.00
2018-02-23T05:10:53.278Z,0.00
2018-02-23T05:11:53.256Z,0.00
2018-02-23T05:13:14.237Z,0.00
2018-02-23T05:13:53.216Z,0.00
2018-02-23T05:14:53.195Z,0.00
2018-02-23T05:15:53.173Z,0.00
2018-02-23T05:16:53.158Z,0.00
2018-02-23T05:17:53.134Z,0.00
2018-02-23T05:19:14.117Z,0.00
2018-02-23T05:19:53.098Z,0.00
2018-02-23T05:20:53.070Z,0.00
2018-02-23T05:21:53.054Z,0.00
2018-02-23T05:22:53.036Z,0.00
2018-02-23T05:23:53.012Z,0.00
2018-02-23T05:25:13.997Z,0.00
2018-02-23T05:25:52.972Z,0.00
2018-02-23T05:26:52.950Z,0.00
2018-02-23T05:27:52.933Z,0.00
2018-02-23T05:28:52.914Z,0.00
2018-02-23T05:29:52.887Z,0.00
2018-02-23T05:31:13.869Z,0.00
2018-02-23T05:31:52.854Z,0.00
2018-02-23T05:32:52.829Z,0.00
2018-02-23T05:33:52.810Z,0.00
2018-02-23T05:34:52.795Z,0.00
2018-02-23T05:35:52.770Z,0.00
2018-02-23T05:37:13.749Z,0.00
2018-02-23T05:37:52.728Z,0.00
2018-02-23T05:38:52.709Z,0.00
2018-02-23T05:39:52.684Z,0.00
2018-02-23T05:40:52.667Z,0.00
2018-02-23T05:41:52.645Z,0.00
2018-02-23T05:43:13.626Z,0.00
2018-02-23T05:43:52.606Z,0.00
2018-02-23T05:44:52.582Z,0.00
2018-02-23T05:45:52.572Z,0.00
2018-02-23T05:46:52.545Z,0.00
2018-02-23T05:47:52.524Z,0.00
2018-02-23T05:49:13.512Z,0.00
2018-02-23T05:49:52.484Z,0.00
2018-02-23T05:50:52.466Z,0.00
2018-02-23T05:51:52.442Z,0.00
2018-02-23T05:52:52.420Z,4.00
2018-02-23T05:53:52.400Z,0.00
2018-02-23T05:55:13.384Z,0.00
2018-02-23T05:55:52.363Z,4.00
2018-02-23T05:56:52.341Z,0.00
2018-02-23T05:57:52.322Z,4.00
2018-02-23T05:58:52.298Z,8.00
2018-02-23T05:59:52.280Z,8.00
2018-02-23T06:01:13.266Z,4.00
2018-02-23T06:01:52.241Z,8.00
2018-02-23T06:02:52.224Z,12.00
2018-02-23T06:03:52.200Z,12.00
2018-02-23T06:04:52.176Z,12.00
2018-02-23T06:05:52.164Z,16.00
2018-02-23T06:07:13.140Z,20.00
2018-02-23T06:07:52.126Z,20.00
2018-02-23T06:08:52.107Z,24.00
2018-02-23T06:09:52.079Z,24.00
2018-02-23T06:10:52.058Z,28.00
2018-02-23T06:11:52.040Z,32.00
2018-02-23T06:13:13.028Z,32.00
2018-02-23T06:13:52.002Z,36.00
2018-02-23T06:14:51.980Z,40.00
2018-02-23T06:15:51.964Z,44.00
2018-02-23T06:16:51.936Z,48.00
2018-02-23T06:17:51.930Z,48.00
2018-02-23T06:19:12.905Z,52.00
2018-02-23T06:19:51.882Z,52.00
2018-02-23T06:20:51.860Z,60.00
2018-02-23T06:21:51.836Z,64.00
2018-02-23T06:22:51.825Z,64.00
2018-02-23T06:23:51.801Z,72.00
2018-02-23T06:25:12.776Z,76.00
2018-02-23T06:25:51.760Z,84.00
2018-02-23T06:26:51.736Z,88.00
2018-02-23T06:27:51.718Z,92.00
2018-02-23T06:28:51.698Z,100.00
2018-02-23T06:29:51.676Z,108.00
2018-02-23T06:31:12.660Z,112.00
2018-02-23T06:31:51.638Z,120.00
2018-02-23T06:32:51.615Z,128.00
2018-02-23T06:33:51.602Z,140.00
2018-02-23T06:34:51.578Z,148.00
2018-02-23T06:35:51.555Z,156.00
2018-02-23T06:37:12.542Z,168.00
2018-02-23T06:37:51.518Z,176.00
2018-02-23T06:38:51.501Z,184.00
2018-02-23T06:39:51.476Z,196.00
2018-02-23T06:40:51.452Z,200.00
2018-02-23T06:41:51.438Z,208.00
2018-02-23T06:43:12.418Z,220.00
2018-02-23T06:43:51.398Z,228.00
2018-02-23T06:44:51.370Z,236.00
2018-02-23T06:45:51.353Z,248.00
2018-02-23T06:46:51.334Z,260.00
2018-02-23T06:47:51.320Z,276.00
2018-02-23T06:49:12.300Z,288.00
2018-02-23T06:49:51.280Z,300.00
2018-02-23T06:50:51.258Z,312.00
2018-02-23T06:51:51.236Z,328.00
2018-02-23T06:52:51.222Z,344.00
2018-02-23T06:53:51.199Z,364.00
2018-02-23T06:55:12.182Z,384.00
2018-02-23T06:55:51.156Z,404.00
2018-02-23T06:56:51.138Z,420.00
2018-02-23T06:57:51.112Z,432.00
2018-02-23T06:58:51.098Z,448.00
2018-02-23T06:59:51.076Z,460.00
2018-02-23T07:01:12.062Z,472.00
2018-02-23T07:01:51.034Z,492.00
2018-02-23T07:02:51.018Z,516.00
2018-02-23T07:03:51.004Z,540.00
2018-02-23T07:04:50.970Z,556.00
2018-02-23T07:05:50.960Z,560.00
2018-02-23T07:07:11.940Z,576.00
2018-02-23T07:07:50.918Z,604.00
2018-02-23T07:08:50.900Z,620.00
2018-02-23T07:09:50.874Z,624.00
2018-02-23T07:10:50.892Z,636.00
2018-02-23T07:11:50.833Z,652.00
2018-02-23T07:13:50.792Z,672.00
2018-02-23T07:14:50.787Z,680.00
2018-02-23T07:15:50.756Z,680.00
2018-02-23T07:16:50.745Z,700.00
2018-02-23T07:17:50.718Z,712.00
2018-02-23T07:20:24.478Z,760.00
2018-02-23T07:21:24.246Z,780.00
2018-02-23T07:23:19.104Z,828.00
2018-02-23T07:24:19.066Z,856.00
2018-02-23T07:26:14.690Z,900.00
2018-02-23T07:27:14.625Z,924.00
2018-02-23T07:29:10.558Z,972.00
2018-02-23T07:30:10.476Z,1000.00
2018-02-23T07:32:06.265Z,1056.00
2018-02-23T07:33:05.926Z,1088.00
2018-02-23T07:35:01.204Z,1148.00
2018-02-23T07:36:01.165Z,1184.00
2018-02-23T07:37:56.154Z,1248.00
2018-02-23T07:38:56.112Z,1284.00
2018-02-23T07:40:50.973Z,1400.00
2018-02-23T07:41:50.940Z,1516.00
2018-02-23T07:43:47.325Z,1788.00
2018-02-23T07:44:47.258Z,1836.00
2018-02-23T07:46:42.654Z,1904.00
2018-02-23T07:47:42.586Z,1952.00
2018-02-23T07:49:37.568Z,2036.00
2018-02-23T07:50:37.534Z,2024.00
2018-02-23T07:52:32.442Z,2108.00
2018-02-23T07:53:32.398Z,2148.00
2018-02-23T07:55:27.540Z,2092.00
2018-02-23T07:56:27.474Z,2072.00
2018-02-23T07:58:22.343Z,2256.00
2018-02-23T07:59:22.297Z,2356.00
2018-02-23T08:01:17.072Z,2708.00
2018-02-23T08:02:17.030Z,2912.00
2018-02-23T08:04:11.270Z,2152.00
2018-02-23T08:05:11.225Z,2412.00
2018-02-23T08:07:07.378Z,2852.00
2018-02-23T08:08:07.342Z,2264.00
2018-02-23T08:10:03.225Z,3204.00
2018-02-23T08:11:03.170Z,3140.00
2018-02-23T08:12:58.024Z,3228.00
2018-02-23T08:13:57.992Z,3252.00
2018-02-23T08:15:52.502Z,3276.00
2018-02-23T08:16:52.468Z,3300.00
2018-02-23T08:18:47.833Z,3320.00
2018-02-23T08:19:47.797Z,3324.00
2018-02-23T08:21:42.650Z,3288.00
2018-02-23T08:22:42.616Z,3252.00
2018-02-23T08:24:37.468Z,3176.00
2018-02-23T08:25:37.430Z,3132.00
2018-02-23T08:27:32.286Z,3124.00
2018-02-23T08:28:32.244Z,3124.00
2018-02-23T08:30:27.605Z,3128.00
2018-02-23T08:31:27.567Z,3128.00
2018-02-23T08:33:22.283Z,3176.00
2018-02-23T08:34:22.240Z,3204.00
2018-02-23T08:36:16.319Z,3244.00
2018-02-23T08:37:16.287Z,3276.00
2018-02-23T08:39:11.154Z,3348.00
2018-02-23T08:40:11.116Z,3384.00
2018-02-23T08:42:05.979Z,3468.00
2018-02-23T08:43:05.940Z,3496.00
2018-02-23T08:45:00.808Z,3536.00
2018-02-23T08:46:00.772Z,3556.00
2018-02-23T08:47:56.116Z,3556.00
2018-02-23T08:48:56.082Z,3560.00
2018-02-23T08:50:51.941Z,3596.00
2018-02-23T08:51:51.906Z,3612.00
2018-02-23T08:53:47.772Z,3624.00
2018-02-23T08:54:47.732Z,3656.00
2018-02-23T08:56:42.613Z,3652.00
2018-02-23T08:57:42.564Z,3664.00
2018-02-23T08:59:37.395Z,3720.00
2018-02-23T09:00:37.358Z,3728.00
2018-02-23T09:02:33.222Z,3776.00
2018-02-23T09:03:33.190Z,3808.00
2018-02-23T09:05:28.070Z,3872.00
2018-02-23T09:06:28.029Z,3880.00
2018-02-23T09:08:23.092Z,3924.00
2018-02-23T09:09:23.064Z,3972.00
2018-02-23T09:11:38.892Z,4020.00
2018-02-23T09:12:38.897Z,4024.00
2018-02-23T09:13:38.843Z,4040.00
2018-02-23T09:14:38.820Z,4064.00
2018-02-23T09:15:38.811Z,4076.00
2018-02-23T09:16:38.798Z,4140.00
2018-02-23T09:17:38.780Z,4172.00
2018-02-23T09:18:38.762Z,4188.00
2018-02-23T09:19:38.746Z,4216.00
2018-02-23T09:20:38.726Z,4260.00
2018-02-23T09:21:38.712Z,4308.00
2018-02-23T09:22:38.696Z,4324.00
2018-02-23T09:23:38.682Z,4324.00
2018-02-23T09:24:38.671Z,4352.00
2018-02-23T09:25:38.654Z,4388.00
2018-02-23T09:26:38.636Z,4416.00
2018-02-23T09:27:38.628Z,4448.00
2018-02-23T09:28:38.605Z,4496.00
2018-02-23T09:29:38.588Z,4512.00
2018-02-23T09:30:38.574Z,4516.00
2018-02-23T09:31:38.559Z,4536.00
2018-02-23T09:32:38.544Z,4540.00
2018-02-23T09:33:38.528Z,4560.00
2018-02-23T09:34:38.515Z,4552.00
2018-02-23T09:35:38.497Z,4580.00
2018-02-23T09:36:38.482Z,4596.00
2018-02-23T09:37:38.467Z,4616.00
2018-02-23T09:38:38.451Z,4616.00
2018-02-23T09:39:38.435Z,4632.00
2018-02-23T09:40:38.419Z,4668.00
2018-02-23T09:41:38.414Z,4688.00
2018-02-23T09:42:38.395Z,4724.00
2018-02-23T09:43:38.377Z,4772.00
2018-02-23T09:44:38.364Z,4760.00
2018-02-23T09:45:38.347Z,4784.00
2018-02-23T09:46:38.337Z,4812.00
2018-02-23T09:47:38.317Z,4808.00
2018-02-23T09:48:38.300Z,4832.00
2018-02-23T09:49:38.282Z,4848.00
2018-02-23T09:50:38.270Z,4876.00
2018-02-23T09:51:38.255Z,4892.00
2018-02-23T09:52:38.248Z,4932.00
2018-02-23T09:53:38.226Z,4968.00
2018-02-23T09:54:38.216Z,4948.00
2018-02-23T09:55:38.199Z,4988.00
2018-02-23T09:56:38.209Z,5008.00
2018-02-23T09:57:38.166Z,5008.00
2018-02-23T09:58:38.153Z,5044.00
2018-02-23T09:59:38.141Z,5060.00
2018-02-23T10:00:38.129Z,5048.00
2018-02-23T10:01:38.111Z,5072.00
2018-02-23T10:02:38.100Z,5104.00
2018-02-23T10:03:38.080Z,5172.00
2018-02-23T10:04:38.072Z,5204.00
2018-02-23T10:05:38.056Z,5208.00
2018-02-23T10:06:38.043Z,5232.00
2018-02-23T10:07:38.026Z,5272.00
2018-02-23T10:08:38.015Z,5280.00
2018-02-23T10:09:38.003Z,5332.00
2018-02-23T10:10:37.986Z,5348.00
2018-02-23T10:11:37.971Z,5356.00
2018-02-23T10:12:37.960Z,5380.00
2018-02-23T10:13:37.948Z,5428.00
2018-02-23T10:14:37.931Z,5460.00
2018-02-23T10:15:37.913Z,5484.00
2018-02-23T10:16:37.904Z,5496.00
2018-02-23T10:17:37.889Z,5548.00
2018-02-23T10:18:37.875Z,5548.00
2018-02-23T10:19:37.861Z,5540.00
2018-02-23T10:20:37.848Z,5580.00
2018-02-23T10:21:37.834Z,5596.00
2018-02-23T10:22:37.821Z,5604.00
2018-02-23T10:23:37.854Z,5624.00
2018-02-23T10:24:37.791Z,5652.00
2018-02-23T10:25:37.785Z,5676.00
2018-02-23T10:26:37.767Z,5676.00
2018-02-23T10:27:37.757Z,5688.00
2018-02-23T10:28:37.740Z,5732.00
2018-02-23T10:29:37.729Z,5724.00
2018-02-23T10:30:37.713Z,5716.00
2018-02-23T10:31:37.700Z,5740.00
2018-02-23T10:32:37.688Z,5732.00
2018-02-23T10:33:37.676Z,5668.00
2018-02-23T10:34:37.665Z,5648.00
2018-02-23T10:35:37.649Z,5568.00
2018-02-23T10:36:37.635Z,5524.00
2018-02-23T10:37:37.621Z,5460.00
2018-02-23T10:38:37.614Z,5468.00
2018-02-23T10:39:37.594Z,5364.00
2018-02-23T10:40:37.588Z,5208.00
2018-02-23T10:41:37.569Z,5308.00
2018-02-23T10:42:37.555Z,5348.00
2018-02-23T10:43:37.543Z,5424.00
2018-02-23T10:44:37.531Z,5680.00
2018-02-23T10:45:37.518Z,5752.00
2018-02-23T10:46:37.504Z,5912.00
2018-02-23T10:47:37.489Z,6008.00
2018-02-23T10:48:37.478Z,5984.00
2018-02-23T10:49:37.464Z,5964.00
2018-02-23T10:50:37.455Z,5828.00
2018-02-23T10:51:37.441Z,5972.00
2018-02-23T10:52:37.429Z,5684.00
2018-02-23T10:53:37.414Z,5768.00
2018-02-23T10:54:37.403Z,5828.00
2018-02-23T10:55:37.391Z,5744.00
2018-02-23T10:56:37.378Z,5140.00
2018-02-23T10:57:37.369Z,5684.00
2018-02-23T10:58:37.356Z,5636.00
2018-02-23T10:59:37.335Z,5864.00
2018-02-23T11:00:37.329Z,5968.00
2018-02-23T11:01:37.314Z,4008.00
2018-02-23T11:02:37.302Z,5976.00
2018-02-23T11:03:37.291Z,6124.00
2018-02-23T11:04:37.280Z,5976.00
2018-02-23T11:05:37.262Z,5980.00
2018-02-23T11:06:37.253Z,5468.00
2018-02-23T11:07:37.234Z,5756.00
2018-02-23T11:08:37.230Z,5688.00
2018-02-23T11:09:37.214Z,5872.00
2018-02-23T11:10:37.207Z,5148.00
2018-02-23T11:11:37.189Z,5084.00
2018-02-23T11:12:37.180Z,5240.00
2018-02-23T11:13:37.167Z,5300.00
2018-02-23T11:14:37.153Z,5552.00
2018-02-23T11:15:37.143Z,5604.00
2018-02-23T11:16:37.124Z,5876.00
2018-02-23T11:17:37.117Z,5712.00
2018-02-23T11:18:37.146Z,5484.00
2018-02-23T11:19:37.097Z,5912.00
2018-02-23T11:20:37.079Z,5728.00
2018-02-23T11:21:37.066Z,5656.00
2018-02-23T11:22:37.054Z,5276.00
2018-02-23T11:23:37.045Z,5080.00
2018-02-23T11:24:37.034Z,5400.00
2018-02-23T11:25:37.015Z,5956.00
2018-02-23T11:26:37.007Z,5992.00
2018-02-23T11:27:36.991Z,6036.00
2018-02-23T11:28:36.983Z,6656.00
2018-02-23T11:29:36.972Z,6568.00
2018-02-23T11:30:36.957Z,4920.00
2018-02-23T11:31:36.946Z,6076.00
2018-02-23T11:32:36.939Z,6768.00
2018-02-23T11:33:36.920Z,6440.00
2018-02-23T11:34:36.909Z,7140.00
2018-02-23T11:35:36.899Z,7244.00
2018-02-23T11:36:36.881Z,7076.00
2018-02-23T11:37:36.875Z,7168.00
2018-02-23T11:38:36.861Z,7032.00
2018-02-23T11:39:36.852Z,6944.00
2018-02-23T11:40:36.839Z,6824.00
2018-02-23T11:41:36.825Z,6620.00
2018-02-23T11:42:36.813Z,6560.00
2018-02-23T11:43:36.797Z,6432.00
2018-02-23T11:44:36.793Z,6256.00
2018-02-23T11:45:36.783Z,5312.00
2018-02-23T11:46:36.789Z,6040.00
2018-02-23T11:47:36.755Z,5904.00
2018-02-23T11:48:36.744Z,5748.00
2018-02-23T11:49:36.734Z,5712.00
2018-02-23T11:50:36.722Z,5684.00
2018-02-23T11:51:36.714Z,6296.00
2018-02-23T11:52:36.711Z,6468.00
2018-02-23T11:53:36.689Z,5728.00
2018-02-23T11:54:36.675Z,5816.00
2018-02-23T11:55:36.682Z,5940.00
2018-02-23T11:56:36.661Z,5860.00
2018-02-23T11:57:36.644Z,5360.00
2018-02-23T11:58:36.637Z,5912.00
2018-02-23T11:59:36.621Z,5988.00
2018-02-23T12:00:36.608Z,5792.00
2018-02-23T12:01:36.598Z,5824.00
2018-02-23T12:02:36.587Z,5900.00
2018-02-23T12:03:36.575Z,5632.00
2018-02-23T12:04:36.559Z,5896.00
2018-02-23T12:05:36.551Z,6256.00
2018-02-23T12:06:36.543Z,5776.00
2018-02-23T12:07:36.530Z,5508.00
2018-02-23T12:08:36.519Z,5800.00
2018-02-23T12:09:36.509Z,5512.00
2018-02-23T12:10:36.497Z,6180.00
2018-02-23T12:11:36.485Z,5792.00
2018-02-23T12:12:36.473Z,5924.00
2018-02-23T12:13:36.465Z,5116.00
2018-02-23T12:14:36.450Z,5184.00
2018-02-23T12:15:36.441Z,6108.00
2018-02-23T12:16:36.427Z,6212.00
2018-02-23T12:17:36.413Z,6584.00
2018-02-23T12:18:36.408Z,6448.00
2018-02-23T12:19:36.396Z,6140.00
2018-02-23T12:20:36.383Z,6140.00
2018-02-23T12:21:36.375Z,6352.00
2018-02-23T12:22:36.359Z,6280.00
2018-02-23T12:23:36.351Z,5812.00
2018-02-23T12:24:36.337Z,5836.00
2018-02-23T12:25:36.322Z,6132.00
2018-02-23T12:26:36.312Z,6088.00
2018-02-23T12:27:36.307Z,6068.00
2018-02-23T12:28:36.290Z,5944.00
2018-02-23T12:29:36.277Z,5912.00
2018-02-23T12:30:36.268Z,5864.00
2018-02-23T12:31:36.255Z,6028.00
2018-02-23T12:32:36.251Z,6152.00
2018-02-23T12:33:36.238Z,6132.00
2018-02-23T12:34:36.227Z,6112.00
2018-02-23T12:35:36.216Z,6092.00
2018-02-23T12:36:36.203Z,5916.00
2018-02-23T12:37:36.191Z,5872.00
2018-02-23T12:38:36.182Z,5996.00
2018-02-23T12:39:36.172Z,6080.00
2018-02-23T12:40:36.161Z,6116.00
2018-02-23T12:41:36.151Z,6156.00
2018-02-23T12:42:36.141Z,6212.00
2018-02-23T12:43:36.131Z,6264.00
2018-02-23T12:44:36.169Z,6224.00
2018-02-23T12:45:36.108Z,6200.00
2018-02-23T12:46:36.101Z,6188.00
2018-02-23T12:47:36.085Z,6156.00
2018-02-23T12:48:36.082Z,6288.00
2018-02-23T12:49:36.069Z,6272.00
2018-02-23T12:50:36.059Z,6336.00
2018-02-23T12:51:36.045Z,6400.00
2018-02-23T12:52:36.035Z,6464.00
2018-02-23T12:53:36.027Z,6336.00
2018-02-23T12:54:36.019Z,6424.00
2018-02-23T12:55:36.005Z,6460.00
2018-02-23T12:56:35.999Z,6520.00
2018-02-23T12:57:35.985Z,6304.00
2018-02-23T12:58:35.975Z,6644.00
2018-02-23T12:59:35.971Z,4856.00
2018-02-23T13:00:35.961Z,5372.00
2018-02-23T13:01:35.947Z,6176.00
2018-02-23T13:02:35.935Z,6328.00
2018-02-23T13:03:35.927Z,5768.00
2018-02-23T13:04:35.917Z,5900.00
2018-02-23T13:05:35.905Z,6260.00
2018-02-23T13:06:35.897Z,6232.00
2018-02-23T13:07:35.885Z,6288.00
2018-02-23T13:08:35.875Z,6224.00
2018-02-23T13:09:35.865Z,6224.00
2018-02-23T13:10:35.859Z,6184.00
2018-02-23T13:11:35.845Z,6164.00
2018-02-23T13:12:35.837Z,5480.00
2018-02-23T13:13:35.824Z,5864.00
2018-02-23T13:14:35.814Z,5736.00
2018-02-23T13:15:35.807Z,5996.00
2018-02-23T13:16:35.798Z,5964.00
2018-02-23T13:17:35.785Z,5888.00
2018-02-23T13:18:35.785Z,5904.00
2018-02-23T13:19:35.777Z,5896.00